Terminal Aerodrome Forecast
Issued by NWS St Louis, MO

Home | Current Version | Previous Version | Text Only | Print | Product List | Glossary On
Versions: 1 2 3 4 5 6 7 8 9 10 11 12 13 14 15 16 17 18 19 20 21 22 23 24 25 26 27 28 29
000
FTUS43 KLSX 040303 AAA
TAFSTL
TAF AMD
KSTL 040303Z 0403/0506 11006KT P6SM OVC080
     FM041000 12004KT 5SM -RA OVC030
     FM041300 14006KT 4SM -RA OVC015
     FM041500 14006KT 3SM -RA BR OVC008
     FM042000 22008KT P6SM OVC015
     FM050300 27005KT P6SM SCT030=

USA.gov is the U.S. government's official web portal to all federal, state and local government web resources and services.